Time;durP1;ratioP1;P1;durP2;ratioP2;P2;SDS_P1;SDS_P2;PMS_P1;PMS_P2;Temp;Humidity;BMP_temperature;BMP_pressure;BME280_temperature;BME280_humidity;BME280_pressure;Samples;Min_cycle;Max_cycle;Signal;HPM_P1;HPM_P2
2022/12/03 00:00:23;;;;;;;22.00;15.93;;;2.30;99.90;;;;;;2617906;54;20145;-80
2022/12/03 00:06:10;;;;;;;23.73;16.60;;;2.30;99.90;;;;;;2618149;54;20176;-79
2022/12/03 00:11:58;;;;;;;21.00;16.80;;;2.30;99.90;;;;;;2618205;54;20118;-80
2022/12/03 00:17:45;;;;;;;25.70;15.97;;;2.30;99.90;;;;;;2618295;54;20154;-79
2022/12/03 00:23:34;;;;;;;29.80;17.83;;;2.40;99.90;;;;;;2618038;54;20130;-80
2022/12/03 00:29:21;;;;;;;25.70;17.70;;;2.30;99.90;;;;;;2618047;54;20379;-78
2022/12/03 00:35:09;;;;;;;21.87;17.33;;;2.30;99.90;;;;;;2618030;54;20126;-79
2022/12/03 00:40:57;;;;;;;22.67;14.23;;;2.30;99.90;;;;;;2618265;54;20137;-80
2022/12/03 00:46:45;;;;;;;23.80;15.70;;;2.40;99.90;;;;;;2617994;54;20130;-80
2022/12/03 00:52:32;;;;;;;19.13;14.77;;;2.40;99.90;;;;;;2617998;54;20647;-81
2022/12/03 01:01:42;;;;;;;27.53;16.43;;;2.40;99.90;;;;;;2617858;54;20419;-80
2022/12/03 01:07:33;;;;;;;21.07;14.93;;;2.40;99.90;;;;;;2618042;47;20604;-79
2022/12/03 01:13:21;;;;;;;21.43;15.40;;;2.40;99.90;;;;;;2617313;54;20403;-79
2022/12/03 01:19:14;;;;;;;20.93;15.40;;;2.40;99.90;;;;;;2617397;54;20154;-79
2022/12/03 01:25:03;;;;;;;24.20;16.00;;;2.40;99.90;;;;;;2617750;54;20366;-79
2022/12/03 01:37:00;;;;;;;22.30;15.67;;;2.40;99.90;;;;;;2617763;54;20370;-80
2022/12/03 01:42:48;;;;;;;25.63;16.90;;;2.40;99.90;;;;;;2617929;54;20130;-83
2022/12/03 01:48:38;;;;;;;24.63;16.60;;;2.40;99.90;;;;;;2616267;47;20674;-81
2022/12/03 01:58:06;;;;;;;23.17;16.33;;;2.40;99.90;;;;;;2616747;54;20403;-81
2022/12/03 02:03:56;;;;;;;26.50;16.90;;;2.40;99.90;;;;;;2616670;54;20406;-82
2022/12/03 02:09:44;;;;;;;23.67;17.27;;;2.40;99.90;;;;;;2617006;54;20407;-83
2022/12/03 02:15:31;;;;;;;23.90;16.20;;;2.40;99.90;;;;;;2617659;54;20396;-82
2022/12/03 02:27:34;;;;;;;27.07;16.93;;;2.40;99.90;;;;;;2620571;54;20383;-83
2022/12/03 02:33:21;;;;;;;26.40;17.77;;;2.40;99.90;;;;;;2620750;54;20748;-83
2022/12/03 02:39:09;;;;;;;30.03;17.27;;;2.40;99.90;;;;;;2620106;54;20124;-82
2022/12/03 02:45:01;;;;;;;30.53;19.03;;;2.30;99.90;;;;;;2620136;54;20162;-80
2022/12/03 02:50:54;;;;;;;25.63;15.47;;;2.30;99.90;;;;;;2620382;54;20387;-83
2022/12/03 02:56:43;;;;;;;25.90;16.70;;;2.40;99.90;;;;;;2619089;54;20410;-83
2022/12/03 03:02:31;;;;;;;28.00;17.60;;;2.30;99.90;;;;;;2618100;54;20451;-83
2022/12/03 03:05:55;;;;;;;25.93;17.00;;;2.30;99.90;;;;;;2618020;47;20407;-83
2022/12/03 03:11:42;;;;;;;31.77;17.07;;;2.30;99.90;;;;;;2617475;54;20415;-83
2022/12/03 03:17:30;;;;;;;24.37;16.23;;;2.20;99.90;;;;;;2617520;54;20134;-82
2022/12/03 03:23:19;;;;;;;30.30;16.50;;;2.30;99.90;;;;;;2616949;54;20929;-82
2022/12/03 03:29:07;;;;;;;30.80;17.70;;;2.20;99.90;;;;;;2616510;54;20399;-83
2022/12/03 03:34:55;;;;;;;30.87;16.43;;;2.20;99.90;;;;;;2617802;54;20126;-82
2022/12/03 03:40:44;;;;;;;35.47;20.20;;;2.30;99.90;;;;;;2617852;54;20391;-81
2022/12/03 03:46:33;;;;;;;27.30;17.50;;;2.20;99.90;;;;;;2618068;54;20395;-82
2022/12/03 03:52:21;;;;;;;34.40;19.13;;;2.20;99.90;;;;;;2618025;54;21573;-82
2022/12/03 03:58:08;;;;;;;32.10;18.25;;;2.20;99.90;;;;;;2616649;54;20368;-82
2022/12/03 04:01:24;;;;;;;32.43;17.73;;;2.10;99.90;;;;;;2616384;46;20448;-82
2022/12/03 04:03:52;;;;;;;38.10;19.40;;;2.20;99.90;;;;;;2616985;47;21103;-82
2022/12/03 04:09:39;;;;;;;33.53;18.03;;;2.20;99.90;;;;;;2616304;54;20392;-82
2022/12/03 04:15:27;;;;;;;33.47;18.87;;;2.10;99.90;;;;;;2615485;39;20590;-84
2022/12/03 04:39:36;;;;;;;33.13;18.90;;;2.20;99.90;;;;;;2618885;54;20387;-83
2022/12/03 04:45:24;;;;;;;34.03;17.80;;;2.20;99.90;;;;;;2619252;54;20407;-83
2022/12/03 04:51:12;;;;;;;36.83;18.70;;;2.10;99.90;;;;;;2619162;54;20222;-83
2022/12/03 04:57:01;;;;;;;27.73;16.57;;;2.00;99.90;;;;;;2619267;54;20386;-84
2022/12/03 05:06:10;;;;;;;34.87;20.73;;;2.10;99.90;;;;;;2623517;54;20480;-83
2022/12/03 05:11:57;;;;;;;38.27;18.47;;;2.00;99.90;;;;;;2622699;54;20140;-82
2022/12/03 05:17:44;;;;;;;36.20;17.43;;;2.10;99.90;;;;;;2623775;54;20136;-81
2022/12/03 05:23:34;;;;;;;34.43;19.20;;;2.00;99.90;;;;;;2617318;54;20127;-78
2022/12/03 05:29:21;;;;;;;41.87;17.30;;;2.00;99.90;;;;;;2618334;54;20419;-79
2022/12/03 05:35:10;;;;;;;33.53;19.43;;;2.00;99.90;;;;;;2619637;54;20118;-78
2022/12/03 05:40:58;;;;;;;35.93;20.50;;;2.00;99.90;;;;;;2619205;39;20459;-77
2022/12/03 05:46:46;;;;;;;39.53;18.97;;;2.00;99.90;;;;;;2618401;54;20122;-79
2022/12/03 05:52:34;;;;;;;32.80;17.90;;;1.90;99.90;;;;;;2618558;54;20908;-80
2022/12/03 05:58:22;;;;;;;34.67;18.80;;;1.90;99.90;;;;;;2618389;54;20134;-80
2022/12/03 06:01:28;;;;;;;36.90;19.30;;;2.00;99.90;;;;;;2617918;47;20403;-80
2022/12/03 06:07:31;;;;;;;31.50;17.93;;;1.90;99.90;;;;;;2617323;54;20426;-82
2022/12/03 06:13:18;;;;;;;34.07;19.70;;;1.90;99.90;;;;;;2616979;54;20359;-80
2022/12/03 06:19:05;;;;;;;39.83;18.37;;;1.90;99.90;;;;;;2617304;54;20436;-80
2022/12/03 06:24:53;;;;;;;29.00;18.17;;;1.90;99.90;;;;;;2617092;54;20162;-80
2022/12/03 06:30:40;;;;;;;34.50;18.10;;;1.90;99.90;;;;;;2617363;54;20118;-81
2022/12/03 06:36:28;;;;;;;43.97;18.40;;;1.90;99.90;;;;;;2618696;54;20667;-80
2022/12/03 06:42:19;;;;;;;34.33;18.90;;;1.90;99.90;;;;;;2618515;54;20150;-79
2022/12/03 06:48:06;;;;;;;35.50;18.77;;;1.90;99.90;;;;;;2616980;54;20431;-81
2022/12/03 06:53:53;;;;;;;32.00;17.50;;;1.90;99.90;;;;;;2616899;54;20130;-80
2022/12/03 06:59:40;;;;;;;35.20;18.83;;;1.90;99.90;;;;;;2617130;54;20131;-81
2022/12/03 07:03:01;;;;;;;31.40;16.80;;;1.80;99.90;;;;;;2616997;54;20386;-80
2022/12/03 07:08:48;;;;;;;34.23;17.70;;;1.80;99.90;;;;;;2617706;46;20495;-79
2022/12/03 07:14:35;;;;;;;38.00;19.07;;;1.80;99.90;;;;;;2617078;54;20191;-83
2022/12/03 07:20:23;;;;;;;40.40;18.83;;;1.80;99.90;;;;;;2618357;54;20143;-79
2022/12/03 07:26:11;;;;;;;33.60;20.07;;;1.80;99.90;;;;;;2618131;54;20146;-81
2022/12/03 07:31:59;;;;;;;33.77;20.03;;;1.80;99.90;;;;;;2618109;54;20122;-81
2022/12/03 07:37:46;;;;;;;40.23;20.87;;;1.70;99.90;;;;;;2618242;54;20153;-80
2022/12/03 07:43:34;;;;;;;29.57;17.10;;;1.80;99.90;;;;;;2617764;54;20692;-78
2022/12/03 07:49:22;;;;;;;32.70;19.23;;;1.80;99.90;;;;;;2617946;54;20154;-80
2022/12/03 07:55:13;;;;;;;29.43;17.83;;;1.80;99.90;;;;;;2616860;46;20366;-80
2022/12/03 08:01:00;;;;;;;35.67;16.90;;;1.80;99.90;;;;;;2616069;54;20419;-79
2022/12/03 08:03:37;;;;;;;38.67;19.73;;;1.90;99.90;;;;;;2616789;46;20432;-79
2022/12/03 08:06:03;;;;;;;29.07;17.63;;;1.90;99.90;;;;;;2616315;46;20302;-82
2022/12/03 08:11:51;;;;;;;34.10;18.60;;;2.10;99.90;;;;;;2616185;54;20374;-81
2022/12/03 08:17:39;;;;;;;33.47;18.97;;;2.10;99.90;;;;;;2616475;39;20630;-80
2022/12/03 08:23:27;;;;;;;33.30;19.73;;;1.90;99.90;;;;;;2617291;54;20403;-79
2022/12/03 08:29:17;;;;;;;33.50;18.70;;;2.00;99.90;;;;;;2618165;47;20907;-80
2022/12/03 08:47:29;;;;;;;33.27;17.63;;;2.20;99.90;;;;;;2618904;54;20395;-79
2022/12/03 08:59:45;;;;;;;33.93;20.37;;;1.90;99.90;;;;;;2618371;54;20470;-81
2022/12/03 09:08:55;;;;;;;37.47;21.90;;;2.00;99.90;;;;;;2619004;47;24175;-81
2022/12/03 09:14:43;;;;;;;36.30;19.33;;;2.00;99.90;;;;;;2619145;54;20121;-82
2022/12/03 09:20:31;;;;;;;39.23;19.97;;;1.90;99.90;;;;;;2618599;54;20463;-81
2022/12/03 09:26:19;;;;;;;39.07;20.03;;;1.80;99.90;;;;;;2618969;54;20118;-81
2022/12/03 09:32:07;;;;;;;35.40;20.33;;;2.00;99.90;;;;;;2618881;54;20143;-79
2022/12/03 09:37:54;;;;;;;35.63;20.27;;;2.10;99.90;;;;;;2619552;54;20656;-79
2022/12/03 09:43:42;;;;;;;40.00;21.40;;;2.00;99.90;;;;;;2619230;54;20139;-79
2022/12/03 09:49:34;;;;;;;36.93;19.13;;;2.10;99.90;;;;;;2619545;54;20519;-80
2022/12/03 09:55:24;;;;;;;34.70;21.43;;;2.10;99.90;;;;;;2620034;54;20359;-80
2022/12/03 10:01:14;;;;;;;36.50;20.93;;;2.30;99.90;;;;;;2619590;54;20390;-81
2022/12/03 10:04:25;;;;;;;37.23;20.53;;;2.30;99.90;;;;;;2619456;54;20965;-80
2022/12/03 10:06:51;;;;;;;37.03;22.50;;;2.40;99.90;;;;;;2617965;46;20405;-79
2022/12/03 10:12:38;;;;;;;33.47;21.17;;;2.40;99.90;;;;;;2617280;54;20455;-80
2022/12/03 10:18:29;;;;;;;33.07;21.43;;;2.40;99.90;;;;;;2617244;54;20179;-80
2022/12/03 10:24:22;;;;;;;33.47;16.77;;;2.50;99.90;;;;;;2617092;54;20413;-80
2022/12/03 10:30:22;;;;;;;36.03;20.27;;;2.50;99.90;;;;;;2617441;54;20370;-80
2022/12/03 10:36:20;;;;;;;33.20;22.90;;;2.50;99.90;;;;;;2617100;54;20404;-81
2022/12/03 10:42:18;;;;;;;35.13;21.80;;;2.40;99.90;;;;;;2617431;54;20394;-79
2022/12/03 10:48:04;;;;;;;34.90;21.67;;;2.40;99.90;;;;;;2616907;54;20436;-79
2022/12/03 10:53:53;;;;;;;33.17;20.67;;;2.40;99.90;;;;;;2617217;54;20715;-80
2022/12/03 10:59:41;;;;;;;33.50;22.37;;;2.30;99.90;;;;;;2618182;54;20431;-79
2022/12/03 11:09:03;;;;;;;42.73;23.77;;;2.40;99.90;;;;;;2621144;54;20428;-83
2022/12/03 11:14:55;;;;;;;45.07;21.60;;;2.30;99.90;;;;;;2618279;54;20419;-82
2022/12/03 11:20:45;;;;;;;36.13;23.47;;;2.50;99.90;;;;;;2618162;54;20395;-83
2022/12/03 11:26:36;;;;;;;30.40;19.90;;;2.30;99.90;;;;;;2618829;54;20431;-82
2022/12/03 11:42:56;;;;;;;32.23;19.37;;;2.50;99.90;;;;;;2617632;54;20406;-81
2022/12/03 11:48:44;;;;;;;32.67;20.10;;;2.40;99.90;;;;;;2617343;54;20408;-84
2022/12/03 11:54:34;;;;;;;32.73;18.63;;;2.40;99.90;;;;;;2616735;54;20379;-83
2022/12/03 12:00:23;;;;;;;42.43;21.40;;;2.30;99.90;;;;;;2617043;54;20405;-82
2022/12/03 12:03:26;;;;;;;35.57;21.63;;;2.30;99.90;;;;;;2617023;47;20398;-84
2022/12/03 12:09:53;;;;;;;34.33;20.87;;;2.50;99.90;;;;;;2617268;54;20467;-83
2022/12/03 12:15:43;;;;;;;31.87;22.03;;;2.50;99.90;;;;;;2618017;54;20406;-83
2022/12/03 12:21:46;;;;;;;36.37;21.83;;;2.50;99.90;;;;;;2618405;54;20949;-84
2022/12/03 12:27:48;;;;;;;40.47;23.10;;;2.50;99.90;;;;;;2620950;39;20776;-83
2022/12/03 12:33:36;;;;;;;36.97;21.70;;;2.50;99.90;;;;;;2619214;54;20547;-83
2022/12/03 12:39:25;;;;;;;40.23;23.17;;;2.50;99.90;;;;;;2618579;54;20153;-84
2022/12/03 12:45:16;;;;;;;36.23;22.53;;;2.50;99.90;;;;;;2617968;54;20395;-83
2022/12/03 12:51:18;;;;;;;34.77;21.77;;;2.40;99.90;;;;;;2618178;54;20801;-84
2022/12/03 12:57:19;;;;;;;39.43;25.20;;;2.40;99.90;;;;;;2619758;54;20399;-82
2022/12/03 13:03:10;;;;;;;33.27;19.40;;;2.50;99.90;;;;;;2618804;39;20719;-84
2022/12/03 13:12:22;;;;;;;44.20;23.30;;;2.30;99.90;;;;;;2617800;54;20377;-84
2022/12/03 13:18:21;;;;;;;35.30;21.30;;;2.30;99.90;;;;;;2618371;54;20402;-84
2022/12/03 13:24:44;;;;;;;36.70;20.80;;;2.30;99.90;;;;;;2618362;54;20358;-84
2022/12/03 13:30:32;;;;;;;38.43;24.57;;;2.30;99.90;;;;;;2616377;54;20900;-82
2022/12/03 13:36:21;;;;;;;36.00;22.77;;;2.50;99.90;;;;;;2616052;54;20476;-81
2022/12/03 13:54:38;;;;;;;40.57;21.43;;;2.40;99.90;;;;;;2616028;54;20430;-86
2022/12/03 14:00:26;;;;;;;29.60;18.83;;;2.40;99.90;;;;;;2618601;54;20394;-84
2022/12/03 14:06:13;;;;;;;33.37;20.23;;;2.40;99.90;;;;;;2619181;54;20118;-83
2022/12/03 14:18:07;;;;;;;29.97;19.63;;;2.50;99.90;;;;;;2619381;54;20440;-83
2022/12/03 14:23:55;;;;;;;37.33;21.80;;;2.50;99.90;;;;;;2619564;54;20126;-85
2022/12/03 14:29:43;;;;;;;34.60;20.40;;;2.40;99.90;;;;;;2619177;54;20207;-82
2022/12/03 14:35:31;;;;;;;41.00;21.50;;;2.50;99.90;;;;;;2618906;39;20793;-84
2022/12/03 14:47:25;;;;;;;35.17;21.03;;;2.30;99.90;;;;;;2619173;54;20454;-85
2022/12/03 14:53:13;;;;;;;31.07;19.37;;;2.30;99.90;;;;;;2618538;54;20123;-83
2022/12/03 14:59:01;;;;;;;35.43;22.03;;;2.30;99.90;;;;;;2618876;54;20167;-83
2022/12/03 15:04:49;;;;;;;37.10;22.03;;;2.20;99.90;;;;;;2624032;54;20107;-84
2022/12/03 15:10:45;;;;;;;38.53;20.70;;;2.20;99.90;;;;;;2618774;31;20828;-84
2022/12/03 15:16:33;;;;;;;35.60;20.33;;;2.20;99.90;;;;;;2616927;54;20163;-84
2022/12/03 15:22:20;;;;;;;31.87;21.40;;;2.20;99.90;;;;;;2617051;54;20924;-84
2022/12/03 15:31:31;;;;;;;32.90;22.23;;;2.10;99.90;;;;;;2618174;54;20969;-84
2022/12/03 15:37:19;;;;;;;35.47;19.57;;;2.20;99.90;;;;;;2618429;39;20750;-84
2022/12/03 15:43:10;;;;;;;32.70;20.43;;;2.10;99.90;;;;;;2617024;54;20404;-85
2022/12/03 15:48:58;;;;;;;31.07;20.57;;;2.00;99.90;;;;;;2619419;54;20366;-84
2022/12/03 15:54:48;;;;;;;35.60;20.93;;;2.00;99.90;;;;;;2618823;54;20420;-85
2022/12/03 16:00:36;;;;;;;34.47;23.80;;;2.00;99.90;;;;;;2620333;54;20408;-82
2022/12/03 16:06:27;;;;;;;32.90;19.50;;;1.90;99.90;;;;;;2618065;54;20943;-86
2022/12/03 16:12:15;;;;;;;28.60;19.03;;;1.90;99.90;;;;;;2618187;54;20407;-85
2022/12/03 16:18:03;;;;;;;31.60;18.77;;;2.00;99.90;;;;;;2619479;54;20207;-84
2022/12/03 16:23:50;;;;;;;38.30;22.43;;;2.00;99.90;;;;;;2619244;54;20153;-86
2022/12/03 16:29:38;;;;;;;37.10;21.40;;;2.00;99.90;;;;;;2619138;54;20238;-83
2022/12/03 16:35:26;;;;;;;30.80;19.50;;;1.90;99.90;;;;;;2620098;54;20161;-83
2022/12/03 16:41:13;;;;;;;29.43;19.27;;;2.00;99.90;;;;;;2619282;54;20136;-82
2022/12/03 16:47:00;;;;;;;33.40;19.70;;;2.00;99.90;;;;;;2619112;54;20195;-83
2022/12/03 16:56:09;;;;;;;30.33;19.40;;;1.90;99.90;;;;;;2620156;54;20941;-85
2022/12/03 17:01:56;;;;;;;32.97;20.50;;;1.90;99.90;;;;;;2620947;54;20122;-84
2022/12/03 17:07:44;;;;;;;33.23;20.37;;;1.90;99.90;;;;;;2619359;54;20125;-82
2022/12/03 17:13:32;;;;;;;28.60;17.30;;;1.90;99.90;;;;;;2624179;54;20557;-83
2022/12/03 17:19:20;;;;;;;32.27;18.00;;;1.90;99.90;;;;;;2624613;54;20103;-82
2022/12/03 17:25:09;;;;;;;37.20;18.43;;;1.90;99.90;;;;;;2625582;54;20129;-83
2022/12/03 17:30:57;;;;;;;31.30;18.83;;;1.90;99.90;;;;;;2621423;54;20518;-86
2022/12/03 17:36:45;;;;;;;34.50;18.40;;;1.90;99.90;;;;;;2621271;54;20693;-84
2022/12/03 17:42:37;;;;;;;34.40;19.10;;;1.90;99.90;;;;;;2620498;54;20203;-84
2022/12/03 17:48:28;;;;;;;25.60;17.83;;;1.90;99.90;;;;;;2619126;54;20370;-84
2022/12/03 17:54:16;;;;;;;36.33;19.60;;;1.90;99.90;;;;;;2619572;54;20375;-84
2022/12/03 18:00:04;;;;;;;24.97;19.60;;;1.90;99.90;;;;;;2619603;54;20938;-85
2022/12/03 18:03:08;;;;;;;32.00;21.10;;;1.90;99.90;;;;;;2620016;54;20954;-86
2022/12/03 18:05:33;;;;;;;28.47;20.33;;;1.90;99.90;;;;;;2619278;47;20419;-84
2022/12/03 18:08:03;;;;;;;31.07;21.50;;;1.90;99.90;;;;;;2619300;54;20387;-84
2022/12/03 18:10:32;;;;;;;33.53;24.30;;;1.90;99.90;;;;;;2619614;54;20668;-86
2022/12/03 18:16:21;;;;;;;35.87;24.13;;;1.90;99.90;;;;;;2620237;54;20361;-84
2022/12/03 18:22:10;;;;;;;34.13;23.77;;;1.80;99.90;;;;;;2619738;54;20391;-83
2022/12/03 18:24:39;;;;;;;33.10;22.27;;;1.80;99.90;;;;;;2619382;46;20397;-84
2022/12/03 18:27:04;;;;;;;37.50;22.80;;;1.90;99.90;;;;;;2619280;54;20531;-84
2022/12/03 18:32:53;;;;;;;38.70;22.83;;;1.80;99.90;;;;;;2620127;54;20142;-86
2022/12/03 18:38:40;;;;;;;33.43;18.70;;;1.80;99.90;;;;;;2620153;54;20379;-85
2022/12/03 18:44:28;;;;;;;32.87;20.43;;;1.80;99.90;;;;;;2619857;54;20150;-85
2022/12/03 18:50:15;;;;;;;32.63;20.67;;;1.70;99.90;;;;;;2619101;54;20130;-85
2022/12/03 18:56:02;;;;;;;30.30;18.63;;;1.70;99.90;;;;;;2618925;54;20154;-85
2022/12/03 19:05:11;;;;;;;33.10;19.20;;;1.70;99.90;;;;;;2619223;54;20444;-85
2022/12/03 19:08:12;;;;;;;32.30;21.87;;;1.60;99.90;;;;;;2619296;54;20379;-86
2022/12/03 19:10:38;;;;;;;33.00;22.73;;;1.60;99.90;;;;;;2619679;47;20230;-84
2022/12/03 19:16:25;;;;;;;31.93;20.73;;;1.70;99.90;;;;;;2618702;54;20120;-85
2022/12/03 19:22:13;;;;;;;40.10;21.37;;;1.60;99.90;;;;;;2620048;54;20129;-84
2022/12/03 19:28:02;;;;;;;28.63;19.67;;;1.60;99.90;;;;;;2620154;54;20657;-83
2022/12/03 19:33:50;;;;;;;37.63;22.70;;;1.60;99.90;;;;;;2620428;54;20279;-86
2022/12/03 19:39:38;;;;;;;39.17;21.90;;;1.60;99.90;;;;;;2620091;54;20371;-85
2022/12/03 19:45:26;;;;;;;44.03;24.00;;;1.60;99.90;;;;;;2619542;54;20122;-85
2022/12/03 19:51:15;;;;;;;46.40;27.40;;;1.50;99.90;;;;;;2620251;54;20134;-85
2022/12/03 19:57:03;;;;;;;48.63;28.47;;;1.50;99.90;;;;;;2619562;54;20519;-86
2022/12/03 20:02:52;;;;;;;36.20;22.10;;;1.50;99.90;;;;;;2620214;54;20194;-83
2022/12/03 20:12:36;;;;;;;31.63;22.23;;;1.50;99.90;;;;;;2618964;54;20444;-85
2022/12/03 20:18:24;;;;;;;36.43;24.40;;;1.50;99.90;;;;;;2619256;54;20402;-86
2022/12/03 20:24:15;;;;;;;42.37;23.77;;;1.50;99.90;;;;;;2619175;54;20251;-85
2022/12/03 20:30:03;;;;;;;44.23;23.90;;;1.50;99.90;;;;;;2619866;54;20424;-82
2022/12/03 20:35:52;;;;;;;39.30;23.37;;;1.40;99.90;;;;;;2619966;54;20383;-84
2022/12/03 20:41:40;;;;;;;31.90;21.23;;;1.50;99.90;;;;;;2620268;54;20483;-85
2022/12/03 20:47:28;;;;;;;40.00;23.30;;;1.50;99.90;;;;;;2619429;54;20363;-85
2022/12/03 20:53:16;;;;;;;38.80;21.80;;;1.50;99.90;;;;;;2619924;54;20154;-84
2022/12/03 20:59:06;;;;;;;39.87;24.13;;;1.50;99.90;;;;;;2618149;54;20131;-86
2022/12/03 21:04:53;;;;;;;39.03;23.73;;;1.50;99.90;;;;;;2618585;39;20712;-85
2022/12/03 21:08:06;;;;;;;43.00;25.43;;;1.50;99.90;;;;;;2617565;54;20943;-86
2022/12/03 21:10:34;;;;;;;47.73;26.87;;;1.40;99.90;;;;;;2617830;47;20178;-85
2022/12/03 21:16:26;;;;;;;37.40;24.33;;;1.50;99.90;;;;;;2618235;54;20387;-84
2022/12/03 21:22:13;;;;;;;39.83;24.17;;;1.50;99.90;;;;;;2618552;54;20371;-85
2022/12/03 21:28:02;;;;;;;43.80;24.00;;;1.50;99.90;;;;;;2620109;39;20505;-85
2022/12/03 21:33:51;;;;;;;44.87;27.93;;;1.50;99.90;;;;;;2620531;54;20382;-85
2022/12/03 21:39:39;;;;;;;42.33;27.57;;;1.50;99.90;;;;;;2619899;54;20387;-85
2022/12/03 21:45:27;;;;;;;43.07;21.83;;;1.50;99.90;;;;;;2621027;39;20518;-84
2022/12/03 21:51:16;;;;;;;48.17;25.37;;;1.50;99.90;;;;;;2620144;54;20183;-84
2022/12/03 21:57:04;;;;;;;51.50;23.20;;;1.50;99.90;;;;;;2620728;54;21288;-85
2022/12/03 22:02:52;;;;;;;41.37;23.67;;;1.50;99.90;;;;;;2620591;54;20704;-85
2022/12/03 22:12:46;;;;;;;40.13;23.37;;;1.50;99.90;;;;;;2620041;54;20937;-84
2022/12/03 22:18:34;;;;;;;41.83;21.30;;;1.40;99.90;;;;;;2618744;54;20430;-84
2022/12/03 22:24:22;;;;;;;43.13;24.80;;;1.40;99.90;;;;;;2618571;54;20407;-82
2022/12/03 22:30:11;;;;;;;45.30;24.27;;;1.50;99.90;;;;;;2619118;54;20167;-84
2022/12/03 22:36:01;;;;;;;39.10;23.77;;;1.40;99.90;;;;;;2618980;54;20371;-82
2022/12/03 22:41:51;;;;;;;38.10;22.63;;;1.40;99.90;;;;;;2620209;39;20766;-85
2022/12/03 22:47:39;;;;;;;38.83;21.90;;;1.40;99.90;;;;;;2619811;54;20379;-85
2022/12/03 22:53:27;;;;;;;41.87;24.33;;;1.50;99.90;;;;;;2619404;54;20163;-84
2022/12/03 22:59:14;;;;;;;41.20;24.03;;;1.40;99.90;;;;;;2619623;54;20223;-83
2022/12/03 23:05:02;;;;;;;43.10;25.37;;;1.40;99.90;;;;;;2618955;54;20121;-85
2022/12/03 23:08:15;;;;;;;43.77;24.77;;;1.40;99.90;;;;;;2619558;39;20787;-84
2022/12/03 23:10:42;;;;;;;37.97;22.23;;;1.40;99.90;;;;;;2618640;47;20167;-84
2022/12/03 23:16:32;;;;;;;35.90;23.17;;;1.50;99.90;;;;;;2619283;54;20417;-83
2022/12/03 23:22:19;;;;;;;39.30;25.60;;;1.40;99.90;;;;;;2619380;54;20366;-84
2022/12/03 23:28:08;;;;;;;43.53;24.07;;;1.50;99.90;;;;;;2618914;54;20130;-82
2022/12/03 23:33:57;;;;;;;42.93;25.70;;;1.40;99.90;;;;;;2619137;54;20423;-84
2022/12/03 23:45:53;;;;;;;38.33;22.97;;;1.40;99.90;;;;;;2619343;39;20747;-82
2022/12/03 23:51:40;;;;;;;49.50;25.90;;;1.40;99.90;;;;;;2618578;54;20664;-84
2022/12/03 23:57:28;;;;;;;41.10;24.63;;;1.40;99.90;;;;;;2619011;54;20204;-83
